createdAt,value
2017-01-20T00:00:00.246Z,23.4
2017-01-20T00:00:40.823Z,23.69
2017-01-20T00:01:21.421Z,23.4
2017-01-20T00:02:02.016Z,23.5
2017-01-20T00:02:42.621Z,23.59
2017-01-20T00:03:23.205Z,23.3
2017-01-20T00:04:03.796Z,23.5
2017-01-20T00:04:44.384Z,23.5
2017-01-20T00:05:24.969Z,23.21
2017-01-20T00:06:05.563Z,23.11
2017-01-20T00:06:46.219Z,23.69
2017-01-20T00:07:26.815Z,23.3
2017-01-20T00:08:07.406Z,23.69
2017-01-20T00:08:48.041Z,23.5
2017-01-20T00:09:28.630Z,23.4
2017-01-20T00:10:09.309Z,23.4
2017-01-20T00:10:49.897Z,23.3
2017-01-20T00:11:30.489Z,23.4
2017-01-20T00:12:11.078Z,23.4
2017-01-20T00:12:51.666Z,23.4
2017-01-20T00:13:32.240Z,23.4
2017-01-20T00:14:12.842Z,23.5
2017-01-20T00:14:53.464Z,23.3
2017-01-20T00:15:34.092Z,23.5
2017-01-20T00:16:14.671Z,23.3
2017-01-20T00:16:55.261Z,23.59
2017-01-20T00:17:35.895Z,23.5
2017-01-20T00:18:16.504Z,23.59
2017-01-20T00:18:57.116Z,23.4
2017-01-20T00:19:37.718Z,23.3
2017-01-20T00:20:18.307Z,23.5
2017-01-20T00:20:58.894Z,23.5
2017-01-20T00:21:39.475Z,23.5
2017-01-20T00:22:20.061Z,23.5
2017-01-20T00:23:00.690Z,23.59
2017-01-20T00:23:41.325Z,23.59
2017-01-20T00:24:21.926Z,23.59
2017-01-20T00:25:02.514Z,23.5
2017-01-20T00:25:43.109Z,23.4
2017-01-20T00:26:23.729Z,23.5
2017-01-20T00:27:04.325Z,23.5
2017-01-20T00:27:44.931Z,23.59
2017-01-20T00:28:25.537Z,23.4
2017-01-20T00:29:06.163Z,23.59
2017-01-20T00:29:46.762Z,23.5
2017-01-20T00:30:27.366Z,23.5
2017-01-20T00:31:07.955Z,23.59
2017-01-20T00:31:48.561Z,23.59
2017-01-20T00:32:29.120Z,23.5
2017-01-20T00:33:09.709Z,23.3
2017-01-20T00:33:50.334Z,23.3
2017-01-20T00:34:30.930Z,23.59
2017-01-20T00:35:11.520Z,23.59
2017-01-20T00:35:52.119Z,23.5
2017-01-20T00:36:32.706Z,23.3
2017-01-20T00:37:13.285Z,23.59
2017-01-20T00:37:53.875Z,23.59
2017-01-20T00:38:34.473Z,23.5
2017-01-20T00:39:15.036Z,23.4
2017-01-20T00:39:55.623Z,23.69
2017-01-20T00:40:36.231Z,23.5
2017-01-20T00:41:16.807Z,23.5
2017-01-20T00:41:57.406Z,23.79
2017-01-20T00:42:38.007Z,23.79
2017-01-20T00:43:18.587Z,23.79
2017-01-20T00:43:59.201Z,23.79
2017-01-20T00:44:39.810Z,23.88
2017-01-20T00:45:20.453Z,23.69
2017-01-20T00:46:01.063Z,23.79
2017-01-20T00:46:41.662Z,23.79
2017-01-20T00:47:22.254Z,23.88
2017-01-20T00:48:02.915Z,23.69
2017-01-20T00:48:43.529Z,23.88
2017-01-20T00:49:24.094Z,23.88
2017-01-20T00:50:04.698Z,23.79
2017-01-20T00:50:45.260Z,23.69
2017-01-20T00:51:25.901Z,23.88
2017-01-20T00:52:06.497Z,23.88
2017-01-20T00:52:47.136Z,23.4
2017-01-20T00:53:27.772Z,23.79
2017-01-20T00:54:08.379Z,23.88
2017-01-20T00:54:48.992Z,23.88
2017-01-20T00:55:29.689Z,23.88
2017-01-20T00:56:10.278Z,23.59
2017-01-20T00:56:50.887Z,23.59
2017-01-20T00:57:31.479Z,23.59
2017-01-20T00:58:12.080Z,23.59
2017-01-20T00:58:52.700Z,23.59
2017-01-20T00:59:33.275Z,23.59
2017-01-20T01:00:13.855Z,23.5
2017-01-20T01:00:54.476Z,23.5
2017-01-20T01:01:35.085Z,23.5
2017-01-20T01:02:15.703Z,23.5
2017-01-20T01:02:56.301Z,23.69
2017-01-20T01:03:36.909Z,23.4
2017-01-20T01:04:17.504Z,23.69
2017-01-20T01:04:58.111Z,23.69
2017-01-20T01:05:38.709Z,23.5
2017-01-20T01:06:19.330Z,23.79
2017-01-20T01:06:59.978Z,23.69
2017-01-20T01:07:40.577Z,23.88
2017-01-20T01:08:21.180Z,23.88
2017-01-20T01:09:01.765Z,23.69
2017-01-20T01:09:42.363Z,23.4
2017-01-20T01:10:22.953Z,23.5
2017-01-20T01:11:03.555Z,23.98
2017-01-20T01:11:44.186Z,23.98
2017-01-20T01:12:24.779Z,24.17
2017-01-20T01:13:05.377Z,24.17
2017-01-20T01:13:45.993Z,23.98
2017-01-20T01:14:26.598Z,23.98
2017-01-20T01:15:07.181Z,24.08
2017-01-20T01:15:47.800Z,24.17
2017-01-20T01:16:28.409Z,24.08
2017-01-20T01:17:09.047Z,24.17
2017-01-20T01:17:49.631Z,24.17
2017-01-20T01:18:30.239Z,23.88
2017-01-20T01:19:10.859Z,23.88
2017-01-20T01:19:51.507Z,23.88
2017-01-20T01:20:32.165Z,23.98
2017-01-20T01:21:12.815Z,24.08
2017-01-20T01:21:53.472Z,24.17
2017-01-20T01:22:34.060Z,24.08
2017-01-20T01:23:14.679Z,23.98
2017-01-20T01:23:55.285Z,23.98
2017-01-20T01:24:35.884Z,23.59
2017-01-20T01:25:16.476Z,24.08
2017-01-20T01:25:57.073Z,23.98
2017-01-20T01:26:37.766Z,23.88
2017-01-20T01:27:18.387Z,23.88
2017-01-20T01:27:58.990Z,23.69
2017-01-20T01:28:39.632Z,24.08
2017-01-20T01:29:20.232Z,23.98
2017-01-20T01:30:00.847Z,24.08
2017-01-20T01:30:41.439Z,23.98
2017-01-20T01:31:22.060Z,23.88
2017-01-20T01:32:02.714Z,23.79
2017-01-20T01:32:43.334Z,24.08
2017-01-20T01:33:23.948Z,23.88
2017-01-20T01:34:04.552Z,23.98
2017-01-20T01:34:45.153Z,24.08
2017-01-20T01:35:25.756Z,23.98
2017-01-20T01:36:06.369Z,24.08
2017-01-20T01:36:46.960Z,24.08
2017-01-20T01:37:27.559Z,24.08
2017-01-20T01:38:08.175Z,24.08
2017-01-20T01:38:48.771Z,23.98
2017-01-20T01:39:29.366Z,23.98
2017-01-20T01:40:10.009Z,23.98
2017-01-20T01:40:50.621Z,23.98
2017-01-20T01:41:31.237Z,23.98
2017-01-20T01:42:12.661Z,23.98
2017-01-20T01:42:53.252Z,23.98
2017-01-20T01:43:33.842Z,23.79
2017-01-20T01:44:14.440Z,24.08
2017-01-20T01:44:55.067Z,23.88
2017-01-20T01:45:35.652Z,23.88
2017-01-20T01:46:16.269Z,24.17
2017-01-20T01:46:56.860Z,24.37
2017-01-20T01:47:37.465Z,24.37
2017-01-20T01:48:18.081Z,24.08
2017-01-20T01:48:58.668Z,23.88
2017-01-20T01:49:39.261Z,24.37
2017-01-20T01:50:19.873Z,24.37
2017-01-20T01:51:00.472Z,24.37
2017-01-20T01:51:41.067Z,23.79
2017-01-20T01:52:21.657Z,24.37
2017-01-20T01:53:02.275Z,24.37
2017-01-20T01:53:42.942Z,24.27
2017-01-20T01:54:23.629Z,24.27
2017-01-20T01:55:04.210Z,24.37
2017-01-20T01:55:44.792Z,24.27
2017-01-20T01:56:25.378Z,24.27
2017-01-20T01:57:05.993Z,24.37
2017-01-20T01:57:46.646Z,24.27
2017-01-20T01:58:27.308Z,24.46
2017-01-20T01:59:07.880Z,24.46
2017-01-20T01:59:48.525Z,24.46
2017-01-20T02:00:29.586Z,24.27
2017-01-20T02:01:09.659Z,24.66
2017-01-20T02:01:50.252Z,24.37
2017-01-20T02:02:30.905Z,24.66
2017-01-20T02:03:11.572Z,24.66
2017-01-20T02:03:52.138Z,24.56
2017-01-20T02:04:32.778Z,24.85
2017-01-20T02:05:13.391Z,24.85
2017-01-20T02:05:53.994Z,24.46
2017-01-20T02:06:34.598Z,24.37
2017-01-20T02:07:15.178Z,24.66
2017-01-20T02:07:55.781Z,24.46
2017-01-20T02:08:36.379Z,24.66
2017-01-20T02:09:16.984Z,24.85
2017-01-20T02:09:57.583Z,24.66
2017-01-20T02:10:38.177Z,24.27
2017-01-20T02:11:18.767Z,24.66
2017-01-20T02:11:59.398Z,24.66
2017-01-20T02:12:39.992Z,24.46
2017-01-20T02:13:20.593Z,24.66
2017-01-20T02:14:01.198Z,24.17
2017-01-20T02:14:41.800Z,24.27
2017-01-20T02:15:22.398Z,24.37
2017-01-20T02:16:03.037Z,24.66
2017-01-20T02:16:43.599Z,24.66
2017-01-20T02:17:24.199Z,24.76
2017-01-20T02:18:04.782Z,24.76
2017-01-20T02:18:45.380Z,24.66
2017-01-20T02:19:25.988Z,24.56
2017-01-20T02:20:06.617Z,24.66
2017-01-20T02:20:47.211Z,24.85
2017-01-20T02:21:27.800Z,24.66
2017-01-20T02:22:08.385Z,24.66
2017-01-20T02:22:48.978Z,24.76
2017-01-20T02:23:29.590Z,24.76
2017-01-20T02:24:10.212Z,24.27
2017-01-20T02:24:50.802Z,24.27
2017-01-20T02:25:31.405Z,24.27
2017-01-20T02:26:12.029Z,24.76
2017-01-20T02:26:52.613Z,24.27
2017-01-20T02:27:33.248Z,24.66
2017-01-20T02:28:13.875Z,24.76
2017-01-20T02:28:54.459Z,24.56
2017-01-20T02:29:35.066Z,24.66
2017-01-20T02:30:15.726Z,24.27
2017-01-20T02:30:56.368Z,24.76
2017-01-20T02:31:37.014Z,24.56
2017-01-20T02:32:17.639Z,24.76
2017-01-20T02:32:58.241Z,24.76
2017-01-20T02:33:38.816Z,24.56
2017-01-20T02:34:19.397Z,24.56
2017-01-20T02:35:00.046Z,24.37
2017-01-20T02:35:40.653Z,24.76
2017-01-20T02:36:21.235Z,24.76
2017-01-20T02:37:01.815Z,24.76
2017-01-20T02:37:42.428Z,24.76
2017-01-20T02:38:23.045Z,24.66
2017-01-20T02:39:03.643Z,24.85
2017-01-20T02:39:44.218Z,24.76
2017-01-20T02:40:24.832Z,24.66
2017-01-20T02:41:05.385Z,24.66
2017-01-20T02:41:45.991Z,24.85
2017-01-20T02:42:26.597Z,24.27
2017-01-20T02:43:07.199Z,24.27
2017-01-20T02:43:47.811Z,24.76
2017-01-20T02:44:28.405Z,24.76
2017-01-20T02:45:09.004Z,24.76
2017-01-20T02:45:49.626Z,24.76
2017-01-20T02:46:30.349Z,24.76
2017-01-20T02:47:10.941Z,24.76
2017-01-20T02:47:51.523Z,24.76
2017-01-20T02:48:32.124Z,24.66
2017-01-20T02:49:12.712Z,24.76
2017-01-20T02:49:53.343Z,24.76
2017-01-20T02:50:33.948Z,24.76
2017-01-20T02:51:14.536Z,24.66
2017-01-20T02:51:55.184Z,24.76
2017-01-20T02:52:35.784Z,24.66
2017-01-20T02:53:16.383Z,24.76
2017-01-20T02:53:56.952Z,24.76
2017-01-20T02:54:37.545Z,24.85
2017-01-20T02:55:18.145Z,24.66
2017-01-20T02:55:58.737Z,24.76
2017-01-20T02:56:39.356Z,24.76
2017-01-20T02:57:19.937Z,24.66
2017-01-20T02:58:00.530Z,24.76
2017-01-20T02:58:41.140Z,24.85
2017-01-20T02:59:21.757Z,24.27
2017-01-20T03:00:02.348Z,24.76
2017-01-20T03:00:42.946Z,24.76
2017-01-20T03:01:23.604Z,24.76
2017-01-20T03:02:04.195Z,24.66
2017-01-20T03:02:44.818Z,24.66
2017-01-20T03:03:25.395Z,24.76
2017-01-20T03:04:05.990Z,24.56
2017-01-20T03:04:46.576Z,24.66
2017-01-20T03:05:27.223Z,24.66
2017-01-20T03:06:07.813Z,24.85
2017-01-20T03:06:48.415Z,24.66
2017-01-20T03:07:29.018Z,24.76
2017-01-20T03:08:09.619Z,24.66
2017-01-20T03:08:50.232Z,24.66
2017-01-20T03:09:30.826Z,24.76
2017-01-20T03:10:11.440Z,24.66
2017-01-20T03:10:52.032Z,24.46
2017-01-20T03:11:32.628Z,24.27
2017-01-20T03:12:13.236Z,24.37
2017-01-20T03:12:53.850Z,24.66
2017-01-20T03:13:34.444Z,24.56
2017-01-20T03:14:15.090Z,24.37
2017-01-20T03:14:55.755Z,24.76
2017-01-20T03:15:36.351Z,24.46
2017-01-20T03:16:16.946Z,24.95
2017-01-20T03:16:57.594Z,24.85
2017-01-20T03:17:38.234Z,24.95
2017-01-20T03:18:18.815Z,24.95
2017-01-20T03:18:59.411Z,24.46
2017-01-20T03:19:40.010Z,24.95
2017-01-20T03:20:20.617Z,24.56
2017-01-20T03:21:01.203Z,24.66
2017-01-20T03:21:41.806Z,24.95
2017-01-20T03:22:22.393Z,24.85
2017-01-20T03:23:02.977Z,24.37
2017-01-20T03:23:43.579Z,24.85
2017-01-20T03:24:24.191Z,24.46
2017-01-20T03:25:04.815Z,24.37
2017-01-20T03:25:45.402Z,24.46
2017-01-20T03:26:26.024Z,24.66
2017-01-20T03:27:06.667Z,24.76
2017-01-20T03:27:47.242Z,24.85
2017-01-20T03:28:27.933Z,24.95
2017-01-20T03:29:08.536Z,24.66
2017-01-20T03:29:49.126Z,24.85
2017-01-20T03:30:29.719Z,24.76
2017-01-20T03:31:10.322Z,24.46
2017-01-20T03:31:50.923Z,24.85
2017-01-20T03:32:31.532Z,24.56
2017-01-20T03:33:12.132Z,24.95
2017-01-20T03:33:52.740Z,24.37
2017-01-20T03:34:33.337Z,24.95
2017-01-20T03:35:13.909Z,24.66
2017-01-20T03:35:54.527Z,24.66
2017-01-20T03:36:35.131Z,24.66
2017-01-20T03:37:15.743Z,24.95
2017-01-20T03:37:56.354Z,24.66
2017-01-20T03:38:37.022Z,24.76
2017-01-20T03:39:17.602Z,24.95
2017-01-20T03:39:58.222Z,24.76
2017-01-20T03:40:38.817Z,24.76
2017-01-20T03:41:19.505Z,24.66
2017-01-20T03:42:00.157Z,24.95
2017-01-20T03:42:40.776Z,24.95
2017-01-20T03:43:21.407Z,24.56
2017-01-20T03:44:02.019Z,24.76
2017-01-20T03:44:42.681Z,24.76
2017-01-20T03:45:23.278Z,24.46
2017-01-20T03:46:03.973Z,24.95
2017-01-20T03:46:44.568Z,24.95
2017-01-20T03:47:25.155Z,24.95
2017-01-20T03:48:05.752Z,24.95
2017-01-20T03:48:46.380Z,24.76
2017-01-20T03:49:26.977Z,24.76
2017-01-20T03:50:07.639Z,24.76
2017-01-20T03:50:48.213Z,24.76
2017-01-20T03:51:28.839Z,24.95
2017-01-20T03:52:09.462Z,24.66
2017-01-20T03:52:50.051Z,24.56
2017-01-20T03:53:30.656Z,24.76
2017-01-20T03:54:11.248Z,24.76
2017-01-20T03:54:51.824Z,24.76
2017-01-20T03:55:32.436Z,24.76
2017-01-20T03:56:13.026Z,24.66
2017-01-20T03:56:53.630Z,24.27
2017-01-20T03:57:34.275Z,24.76
2017-01-20T03:58:14.906Z,24.37
2017-01-20T03:58:55.534Z,24.46
2017-01-20T03:59:36.117Z,24.66
2017-01-20T04:00:16.729Z,24.46
2017-01-20T04:00:57.312Z,24.56
2017-01-20T04:01:37.904Z,24.76
2017-01-20T04:02:18.530Z,24.76
2017-01-20T04:02:59.180Z,24.76
2017-01-20T04:03:39.773Z,24.76
2017-01-20T04:04:20.385Z,24.95
2017-01-20T04:05:00.977Z,24.76
2017-01-20T04:05:41.578Z,24.95
2017-01-20T04:06:22.198Z,24.95
2017-01-20T04:07:02.813Z,24.85
2017-01-20T04:07:43.406Z,24.56
2017-01-20T04:08:23.986Z,24.66
2017-01-20T04:09:04.582Z,24.56
2017-01-20T04:09:45.202Z,24.66
2017-01-20T04:10:25.770Z,24.46
2017-01-20T04:11:06.357Z,24.56
2017-01-20T04:13:00.276Z,24.46
2017-01-20T04:13:40.856Z,24.66
2017-01-20T04:14:21.442Z,24.76
2017-01-20T04:15:02.030Z,24.56
2017-01-20T04:15:42.610Z,24.76
2017-01-20T04:16:23.186Z,24.85
2017-01-20T04:17:03.765Z,24.66
2017-01-20T04:17:44.350Z,24.85
2017-01-20T04:18:24.939Z,24.95
2017-01-20T04:19:05.539Z,24.95
2017-01-20T04:19:46.122Z,24.76
2017-01-20T04:20:26.696Z,24.95
2017-01-20T04:21:07.279Z,24.85
2017-01-20T04:21:47.870Z,24.56
2017-01-20T04:22:28.479Z,24.85
2017-01-20T04:23:09.080Z,24.85
2017-01-20T04:23:49.655Z,24.56
2017-01-20T04:24:30.345Z,24.76
2017-01-20T04:25:10.918Z,24.76
2017-01-20T04:25:51.497Z,24.46
2017-01-20T04:26:32.097Z,24.76
2017-01-20T04:27:12.708Z,24.66
2017-01-20T04:27:53.298Z,24.56
2017-01-20T04:28:33.909Z,24.66
2017-01-20T04:29:14.564Z,24.46
2017-01-20T04:29:55.154Z,24.56
2017-01-20T04:30:35.758Z,24.76
2017-01-20T04:31:16.374Z,24.85
2017-01-20T04:31:56.975Z,24.95
2017-01-20T04:32:37.563Z,24.95
2017-01-20T04:33:18.172Z,24.76
2017-01-20T04:33:58.739Z,24.95
2017-01-20T04:34:39.317Z,24.76
2017-01-20T04:35:19.911Z,25.14
2017-01-20T04:36:00.499Z,24.76
2017-01-20T04:36:41.138Z,24.85
2017-01-20T04:37:21.748Z,24.76
2017-01-20T04:38:02.393Z,25.04
2017-01-20T04:38:42.989Z,24.95
2017-01-20T04:39:23.595Z,24.76
2017-01-20T04:40:04.195Z,24.85
2017-01-20T04:40:44.787Z,24.85
2017-01-20T04:41:25.391Z,24.56
2017-01-20T04:42:06.004Z,24.95
2017-01-20T04:42:46.602Z,24.85
2017-01-20T04:43:27.257Z,24.95
2017-01-20T04:44:07.854Z,24.95
2017-01-20T04:44:48.441Z,24.76
2017-01-20T04:45:29.038Z,24.95
2017-01-20T04:46:09.626Z,24.85
2017-01-20T04:46:50.209Z,24.76
2017-01-20T04:47:30.804Z,24.95
2017-01-20T04:48:11.376Z,24.85
2017-01-20T04:48:51.969Z,24.95
2017-01-20T04:49:32.574Z,24.95
2017-01-20T04:50:13.176Z,24.95
2017-01-20T04:50:53.751Z,25.04
2017-01-20T04:51:34.380Z,25.04
2017-01-20T04:52:14.986Z,24.95
2017-01-20T04:52:55.580Z,24.95
2017-01-20T04:53:36.179Z,24.95
2017-01-20T04:54:16.780Z,24.85
2017-01-20T04:54:57.396Z,24.95
2017-01-20T04:55:37.980Z,24.85
2017-01-20T04:56:18.591Z,24.85
2017-01-20T04:56:59.183Z,24.85
2017-01-20T04:57:39.772Z,24.95
2017-01-20T04:58:20.418Z,24.95
2017-01-20T04:59:01.058Z,24.95
2017-01-20T04:59:41.643Z,24.95
2017-01-20T05:00:22.255Z,24.95
2017-01-20T05:01:02.854Z,24.95
2017-01-20T05:01:43.468Z,24.95
2017-01-20T05:02:24.054Z,24.85
2017-01-20T05:03:04.663Z,24.95
2017-01-20T05:03:45.317Z,24.85
2017-01-20T05:04:25.930Z,24.95
2017-01-20T05:05:06.522Z,24.95
2017-01-20T05:05:47.114Z,25.04
2017-01-20T05:06:27.814Z,24.95
2017-01-20T05:07:08.430Z,24.85
2017-01-20T05:07:49.040Z,24.95
2017-01-20T05:08:29.636Z,24.95
2017-01-20T05:09:10.247Z,24.85
2017-01-20T05:09:50.826Z,24.85
2017-01-20T05:10:31.431Z,24.85
2017-01-20T05:11:12.033Z,24.76
2017-01-20T05:11:52.645Z,24.95
2017-01-20T05:12:33.244Z,24.76
2017-01-20T05:13:13.836Z,24.95
2017-01-20T05:13:54.455Z,24.76
2017-01-20T05:14:35.111Z,24.95
2017-01-20T05:15:15.713Z,24.85
2017-01-20T05:15:56.303Z,24.85
2017-01-20T05:16:36.916Z,24.66
2017-01-20T05:17:17.526Z,24.76
2017-01-20T05:17:58.118Z,24.76
2017-01-20T05:18:38.812Z,24.95
2017-01-20T05:19:19.387Z,24.76
2017-01-20T05:19:59.997Z,24.85
2017-01-20T05:20:40.629Z,24.85
2017-01-20T05:21:21.225Z,25.04
2017-01-20T05:22:01.832Z,24.66
2017-01-20T05:22:42.461Z,25.04
2017-01-20T05:23:23.087Z,24.76
2017-01-20T05:24:03.706Z,24.66
2017-01-20T05:24:44.302Z,24.76
2017-01-20T05:25:24.899Z,24.85
2017-01-20T05:26:05.484Z,24.95
2017-01-20T05:26:46.062Z,24.76
2017-01-20T05:27:26.640Z,24.76
2017-01-20T05:28:07.240Z,24.85
2017-01-20T05:28:47.845Z,24.95
2017-01-20T05:29:28.456Z,24.76
2017-01-20T05:30:09.070Z,24.66
2017-01-20T05:30:49.732Z,24.95
2017-01-20T05:31:30.317Z,24.85
2017-01-20T05:32:10.915Z,24.85
2017-01-20T05:32:51.500Z,24.85
2017-01-20T05:33:32.075Z,24.76
2017-01-20T05:34:12.674Z,24.85
2017-01-20T05:34:53.279Z,24.76
2017-01-20T05:35:33.882Z,24.95
2017-01-20T05:36:14.476Z,24.85
2017-01-20T05:36:55.071Z,24.95
2017-01-20T05:37:35.660Z,24.85
2017-01-20T05:38:16.246Z,24.76
2017-01-20T05:38:56.884Z,24.95
2017-01-20T05:39:37.493Z,24.95
2017-01-20T05:40:18.084Z,25.14
2017-01-20T05:40:58.683Z,24.85
2017-01-20T05:41:39.302Z,24.95
2017-01-20T05:42:19.887Z,24.85
2017-01-20T05:43:00.498Z,24.76
2017-01-20T05:43:41.071Z,24.76
2017-01-20T05:44:21.716Z,24.76
2017-01-20T05:45:02.293Z,24.66
2017-01-20T05:45:42.908Z,24.85
2017-01-20T05:46:23.535Z,24.95
2017-01-20T05:47:04.188Z,24.76
2017-01-20T05:47:44.763Z,24.85
2017-01-20T05:48:25.370Z,24.85
2017-01-20T05:49:05.968Z,25.14
2017-01-20T05:49:46.615Z,24.76
2017-01-20T05:50:27.238Z,25.14
2017-01-20T05:51:07.840Z,25.14
2017-01-20T05:51:48.450Z,24.76
2017-01-20T05:52:29.129Z,24.76
2017-01-20T05:53:09.704Z,24.95
2017-01-20T05:53:50.347Z,24.95
2017-01-20T05:54:30.925Z,25.14
2017-01-20T05:55:11.539Z,24.95
2017-01-20T05:55:52.127Z,24.76
2017-01-20T05:56:32.745Z,24.85
2017-01-20T05:57:13.335Z,24.95
2017-01-20T05:57:53.937Z,25.34
2017-01-20T05:58:34.542Z,25.24
2017-01-20T05:59:15.133Z,25.04
2017-01-20T05:59:55.750Z,24.95
2017-01-20T06:00:36.345Z,25.04
2017-01-20T06:01:16.935Z,25.14
2017-01-20T06:01:57.584Z,25.24
2017-01-20T06:02:38.207Z,25.43
2017-01-20T06:03:18.801Z,25.24
2017-01-20T06:03:59.383Z,25.04
2017-01-20T06:04:40.047Z,25.24
2017-01-20T06:05:20.661Z,25.14
2017-01-20T06:06:01.247Z,25.04
2017-01-20T06:06:41.866Z,25.14
2017-01-20T06:07:22.499Z,25.14
2017-01-20T06:08:03.098Z,25.04
2017-01-20T06:08:43.677Z,25.14
2017-01-20T06:09:24.253Z,25.04
2017-01-20T06:10:04.828Z,25.04
2017-01-20T06:10:45.441Z,25.24
2017-01-20T06:11:26.025Z,25.24
2017-01-20T06:12:06.641Z,25.04
2017-01-20T06:12:47.280Z,25.43
2017-01-20T06:13:27.849Z,25.24
2017-01-20T06:14:08.446Z,25.24
2017-01-20T06:14:49.037Z,25.24
2017-01-20T06:15:29.600Z,25.34
2017-01-20T06:16:10.199Z,25.04
2017-01-20T06:16:50.765Z,25.34
2017-01-20T06:17:31.367Z,25.43
2017-01-20T06:18:11.972Z,25.52
2017-01-20T06:18:52.553Z,25.34
2017-01-20T06:19:33.147Z,25.43
2017-01-20T06:20:13.761Z,25.24
2017-01-20T06:20:55.060Z,25.04
2017-01-20T06:21:35.672Z,25.34
2017-01-20T06:22:16.293Z,25.14
2017-01-20T06:22:56.885Z,25.24
2017-01-20T06:23:37.467Z,25.04
2017-01-20T06:24:18.057Z,25.24
2017-01-20T06:24:58.643Z,25.04
2017-01-20T06:25:39.236Z,25.43
2017-01-20T06:26:19.833Z,25.04
2017-01-20T06:27:00.422Z,25.04
2017-01-20T06:27:41.039Z,25.24
2017-01-20T06:28:21.612Z,25.52
2017-01-20T06:29:02.199Z,25.43
2017-01-20T06:29:42.814Z,25.34
2017-01-20T06:30:23.401Z,25.52
2017-01-20T06:31:04.025Z,25.34
2017-01-20T06:31:44.608Z,25.43
2017-01-20T06:32:25.208Z,25.24
2017-01-20T06:33:05.819Z,25.52
2017-01-20T06:33:46.446Z,25.34
2017-01-20T06:34:27.131Z,25.24
2017-01-20T06:35:07.752Z,25.43
2017-01-20T06:35:48.357Z,25.34
2017-01-20T06:36:28.939Z,25.43
2017-01-20T06:37:09.583Z,25.43
2017-01-20T06:37:50.126Z,25.52
2017-01-20T06:38:30.722Z,25.24
2017-01-20T06:39:11.383Z,25.52
2017-01-20T06:39:51.925Z,25.34
2017-01-20T06:40:32.533Z,25.14
2017-01-20T06:41:13.136Z,25.52
2017-01-20T06:41:53.746Z,25.52
2017-01-20T06:42:34.348Z,25.52
2017-01-20T06:43:14.963Z,25.62
2017-01-20T06:43:55.549Z,25.24
2017-01-20T06:44:36.174Z,25.52
2017-01-20T06:45:16.810Z,25.52
2017-01-20T06:45:57.391Z,25.52
2017-01-20T06:46:38.045Z,25.34
2017-01-20T06:47:18.667Z,25.24
2017-01-20T06:47:59.254Z,25.24
2017-01-20T06:48:39.874Z,25.14
2017-01-20T06:49:20.471Z,25.24
2017-01-20T06:50:01.079Z,25.24
2017-01-20T06:50:41.663Z,25.52
2017-01-20T06:51:22.290Z,25.24
2017-01-20T06:52:02.875Z,25.34
2017-01-20T06:52:43.492Z,25.24
2017-01-20T06:53:24.082Z,25.14
2017-01-20T06:54:04.716Z,25.52
2017-01-20T06:54:45.310Z,25.52
2017-01-20T06:55:25.907Z,25.52
2017-01-20T06:56:06.591Z,25.34
2017-01-20T06:56:47.195Z,25.52
2017-01-20T06:57:27.788Z,25.52
2017-01-20T06:58:08.388Z,25.62
2017-01-20T06:58:48.970Z,25.52
2017-01-20T06:59:29.616Z,25.52
2017-01-20T07:00:10.202Z,25.52
2017-01-20T07:00:50.789Z,25.52
2017-01-20T07:01:31.394Z,25.43
2017-01-20T07:02:12.007Z,25.24
2017-01-20T07:02:52.573Z,25.43
2017-01-20T07:03:33.189Z,25.52
2017-01-20T07:04:13.778Z,25.43
2017-01-20T07:04:54.365Z,25.52
2017-01-20T07:05:34.964Z,25.72
2017-01-20T07:06:15.577Z,25.92
2017-01-20T07:06:56.163Z,25.72
2017-01-20T07:07:36.742Z,25.72
2017-01-20T07:08:17.316Z,25.82
2017-01-20T07:08:57.948Z,25.52
2017-01-20T07:09:38.542Z,25.72
2017-01-20T07:10:19.149Z,25.62
2017-01-20T07:10:59.754Z,25.62
2017-01-20T07:11:40.360Z,25.92
2017-01-20T07:12:21.042Z,25.92
2017-01-20T07:13:01.646Z,25.82
2017-01-20T07:13:42.245Z,26.01
2017-01-20T07:14:22.871Z,26.01
2017-01-20T07:15:03.485Z,25.92
2017-01-20T07:15:44.110Z,26.1
2017-01-20T07:16:24.711Z,25.92
2017-01-20T07:17:05.313Z,26.2
2017-01-20T07:17:45.943Z,25.92
2017-01-20T07:18:26.572Z,25.82
2017-01-20T07:19:07.217Z,25.92
2017-01-20T07:19:47.899Z,25.92
2017-01-20T07:20:28.529Z,25.72
2017-01-20T07:21:09.131Z,25.62
2017-01-20T07:21:49.786Z,26.3
2017-01-20T07:22:30.452Z,26.2
2017-01-20T07:23:11.063Z,26.3
2017-01-20T07:23:51.638Z,26.5
2017-01-20T07:24:32.257Z,26.5
2017-01-20T07:25:12.868Z,26.4
2017-01-20T07:25:53.447Z,26.4
2017-01-20T07:26:34.049Z,26.4
2017-01-20T07:27:14.710Z,26.4
2017-01-20T07:27:55.307Z,26.68
2017-01-20T07:28:35.896Z,26.59
2017-01-20T07:29:16.473Z,26.88
2017-01-20T07:29:57.078Z,26.88
2017-01-20T07:30:37.672Z,26.88
2017-01-20T07:31:18.284Z,26.78
2017-01-20T07:31:58.831Z,26.78
2017-01-20T07:32:39.428Z,27.08
2017-01-20T07:33:20.003Z,26.98
2017-01-20T07:34:00.923Z,26.98
2017-01-20T07:34:41.541Z,27.17
2017-01-20T07:35:22.161Z,26.98
2017-01-20T07:36:02.751Z,26.98
2017-01-20T07:36:43.334Z,26.98
2017-01-20T07:37:23.918Z,27.26
2017-01-20T07:38:04.532Z,27.17
2017-01-20T07:38:45.147Z,27.17
2017-01-20T07:39:25.746Z,27.17
2017-01-20T07:40:06.340Z,27.26
2017-01-20T07:40:46.941Z,27.46
2017-01-20T07:41:27.542Z,27.36
2017-01-20T07:42:08.133Z,27.46
2017-01-20T07:42:48.711Z,27.46
2017-01-20T07:43:29.340Z,27.46
2017-01-20T07:44:09.927Z,27.46
2017-01-20T07:44:50.517Z,27.47
2017-01-20T07:45:31.104Z,27.47
2017-01-20T07:46:11.694Z,27.28
2017-01-20T07:46:52.281Z,27.47
2017-01-20T07:47:32.877Z,27.37
2017-01-20T07:48:13.480Z,27.37
2017-01-20T07:48:54.064Z,27.47
2017-01-20T07:49:34.687Z,27.37
2017-01-20T07:50:15.308Z,27.47
2017-01-20T07:50:55.932Z,27.19
2017-01-20T07:51:36.528Z,27.47
2017-01-20T07:52:17.115Z,27.75
2017-01-20T07:52:57.711Z,27.85
2017-01-20T07:53:38.290Z,27.66
2017-01-20T07:54:18.876Z,27.76
2017-01-20T07:54:59.464Z,28.14
2017-01-20T07:55:40.042Z,27.94
2017-01-20T07:56:20.636Z,28.15
2017-01-20T07:57:01.221Z,28.15
2017-01-20T07:57:41.823Z,28.14
2017-01-20T07:58:22.402Z,28.43
2017-01-20T07:59:03.016Z,28.34
2017-01-20T07:59:43.618Z,28.52
2017-01-20T08:00:24.214Z,28.33
2017-01-20T08:01:04.821Z,28.23
2017-01-20T08:01:45.418Z,28.43
2017-01-20T08:02:26.038Z,28.43
2017-01-20T08:03:06.690Z,28.43
2017-01-20T08:03:47.292Z,28.23
2017-01-20T08:04:28.715Z,28.33
2017-01-20T08:05:08.507Z,28.43
2017-01-20T08:05:49.117Z,28.33
2017-01-20T08:06:29.728Z,28.81
2017-01-20T08:07:10.365Z,28.91
2017-01-20T08:07:50.973Z,28.62
2017-01-20T08:08:31.565Z,29.01
2017-01-20T08:09:12.156Z,28.62
2017-01-20T08:09:52.786Z,28.33
2017-01-20T08:10:33.394Z,29.59
2017-01-20T08:11:14.025Z,29.3
2017-01-20T08:11:54.623Z,29.88
2017-01-20T08:12:35.222Z,29.97
2017-01-20T08:13:15.822Z,29.97
2017-01-20T08:13:56.419Z,30.07
2017-01-20T08:14:37.025Z,30.36
2017-01-20T08:15:17.606Z,30.27
2017-01-20T08:15:58.674Z,30.36
2017-01-20T08:16:39.269Z,30.17
2017-01-20T08:17:19.886Z,30.07
2017-01-20T08:18:00.479Z,30.17
2017-01-20T08:18:41.079Z,30.17
2017-01-20T08:19:21.731Z,30.46
2017-01-20T08:20:02.328Z,30.17
2017-01-20T08:20:42.935Z,30.36
2017-01-20T08:21:23.550Z,30.46
2017-01-20T08:22:04.214Z,30.65
2017-01-20T08:22:44.822Z,30.55
2017-01-20T08:23:25.404Z,30.75
2017-01-20T08:24:06.007Z,30.94
2017-01-20T08:24:46.605Z,30.65
2017-01-20T08:25:27.209Z,30.75
2017-01-20T08:26:07.867Z,30.75
2017-01-20T08:26:48.520Z,31.12
2017-01-20T08:27:29.124Z,30.75
2017-01-20T08:28:09.766Z,31.12
2017-01-20T08:28:50.362Z,31.13
2017-01-20T08:29:30.993Z,31.04
2017-01-20T08:30:11.593Z,31.33
2017-01-20T08:30:52.178Z,31.33
2017-01-20T08:31:32.760Z,31.33
2017-01-20T08:32:13.333Z,30.83
2017-01-20T08:32:53.939Z,31.12
2017-01-20T08:33:34.527Z,30.93
2017-01-20T08:34:15.137Z,30.94
2017-01-20T08:34:55.737Z,30.94
2017-01-20T08:35:36.334Z,30.93
2017-01-20T08:36:16.933Z,31.12
2017-01-20T08:36:57.529Z,31.22
2017-01-20T08:37:38.120Z,30.75
2017-01-20T08:38:18.703Z,31.12
2017-01-20T08:38:59.301Z,31.02
2017-01-20T08:39:39.895Z,31.12
2017-01-20T08:40:21.472Z,31.04
2017-01-20T08:41:02.040Z,31.13
2017-01-20T08:41:42.639Z,31.13
2017-01-20T08:42:23.322Z,30.94
2017-01-20T08:43:03.928Z,31.12
2017-01-20T08:43:44.518Z,31.12
2017-01-20T08:44:25.140Z,31.02
2017-01-20T08:45:05.734Z,31.12